sensor_id;sensor_type;location;lat;lon;timestamp;pressure;altitude;pressure_sealevel;temperature;humidity
26487;BME280;14425;56.136;40.360;2023-02-19T00:01:29;98354.50;;;-5.60;100.00
26487;BME280;14425;56.136;40.360;2023-02-19T00:04:00;98355.88;;;-5.86;100.00
26487;BME280;14425;56.136;40.360;2023-02-19T00:06:27;98354.59;;;-5.91;100.00
26487;BME280;14425;56.136;40.360;2023-02-19T00:08:53;98355.34;;;-6.14;100.00
26487;BME280;14425;56.136;40.360;2023-02-19T00:11:21;98355.81;;;-6.08;100.00
26487;BME280;14425;56.136;40.360;2023-02-19T00:13:49;98345.91;;;-6.06;100.00
26487;BME280;14425;56.136;40.360;2023-02-19T00:16:20;98346.13;;;-6.36;100.00
26487;BME280;14425;56.136;40.360;2023-02-19T00:18:46;98337.31;;;-6.20;100.00
26487;BME280;14425;56.136;40.360;2023-02-19T00:21:12;98337.56;;;-5.95;100.00
26487;BME280;14425;56.136;40.360;2023-02-19T00:23:38;98342.09;;;-5.69;100.00
26487;BME280;14425;56.136;40.360;2023-02-19T00:26:10;98339.50;;;-5.26;99.42
26487;BME280;14425;56.136;40.360;2023-02-19T00:28:36;98339.84;;;-5.44;100.00
26487;BME280;14425;56.136;40.360;2023-02-19T00:33:40;98337.78;;;-6.24;100.00
26487;BME280;14425;56.136;40.360;2023-02-19T00:36:06;98343.31;;;-6.18;100.00
26487;BME280;14425;56.136;40.360;2023-02-19T00:38:35;98342.69;;;-6.16;100.00
26487;BME280;14425;56.136;40.360;2023-02-19T00:41:02;98336.34;;;-6.00;100.00
26487;BME280;14425;56.136;40.360;2023-02-19T00:43:56;98340.94;;;-5.95;100.00
26487;BME280;14425;56.136;40.360;2023-02-19T00:48:49;98329.13;;;-5.85;100.00
26487;BME280;14425;56.136;40.360;2023-02-19T00:51:15;98340.38;;;-5.80;100.00
26487;BME280;14425;56.136;40.360;2023-02-19T00:53:41;98335.41;;;-6.23;100.00
26487;BME280;14425;56.136;40.360;2023-02-19T00:56:07;98329.34;;;-5.82;100.00
26487;BME280;14425;56.136;40.360;2023-02-19T00:58:32;98321.66;;;-5.51;100.00
26487;BME280;14425;56.136;40.360;2023-02-19T01:00:58;98322.06;;;-5.79;100.00
26487;BME280;14425;56.136;40.360;2023-02-19T01:03:24;98316.41;;;-5.99;100.00
26487;BME280;14425;56.136;40.360;2023-02-19T01:05:50;98323.25;;;-6.28;100.00
26487;BME280;14425;56.136;40.360;2023-02-19T01:08:15;98316.72;;;-6.26;100.00
26487;BME280;14425;56.136;40.360;2023-02-19T01:10:41;98317.75;;;-6.35;100.00
26487;BME280;14425;56.136;40.360;2023-02-19T01:13:07;98302.38;;;-6.07;100.00
26487;BME280;14425;56.136;40.360;2023-02-19T01:15:33;98313.63;;;-6.44;100.00
26487;BME280;14425;56.136;40.360;2023-02-19T01:17:58;98314.25;;;-6.37;100.00
26487;BME280;14425;56.136;40.360;2023-02-19T01:20:24;98308.19;;;-6.18;100.00
26487;BME280;14425;56.136;40.360;2023-02-19T01:22:51;98312.13;;;-6.00;100.00
26487;BME280;14425;56.136;40.360;2023-02-19T01:25:16;98306.97;;;-6.34;100.00
26487;BME280;14425;56.136;40.360;2023-02-19T01:27:42;98297.63;;;-5.92;100.00
26487;BME280;14425;56.136;40.360;2023-02-19T01:30:08;98306.81;;;-5.92;100.00
26487;BME280;14425;56.136;40.360;2023-02-19T01:32:33;98300.22;;;-5.80;100.00
26487;BME280;14425;56.136;40.360;2023-02-19T01:34:59;98303.94;;;-6.29;100.00
26487;BME280;14425;56.136;40.360;2023-02-19T01:37:24;98293.13;;;-6.18;100.00
26487;BME280;14425;56.136;40.360;2023-02-19T01:39:50;98285.16;;;-6.02;100.00
26487;BME280;14425;56.136;40.360;2023-02-19T01:42:16;98298.16;;;-6.28;100.00
26487;BME280;14425;56.136;40.360;2023-02-19T01:47:07;98295.13;;;-6.24;100.00
26487;BME280;14425;56.136;40.360;2023-02-19T01:49:46;98292.16;;;-6.30;100.00
26487;BME280;14425;56.136;40.360;2023-02-19T01:52:21;98287.34;;;-5.95;100.00
26487;BME280;14425;56.136;40.360;2023-02-19T01:54:50;98285.19;;;-6.13;100.00
26487;BME280;14425;56.136;40.360;2023-02-19T01:57:23;98292.41;;;-6.27;100.00
26487;BME280;14425;56.136;40.360;2023-02-19T01:59:52;98282.47;;;-6.26;100.00
26487;BME280;14425;56.136;40.360;2023-02-19T02:02:22;98284.09;;;-6.26;100.00
26487;BME280;14425;56.136;40.360;2023-02-19T02:04:49;98272.50;;;-6.46;100.00
26487;BME280;14425;56.136;40.360;2023-02-19T02:07:15;98276.22;;;-6.31;100.00
26487;BME280;14425;56.136;40.360;2023-02-19T02:10:01;98279.91;;;-6.48;100.00
26487;BME280;14425;56.136;40.360;2023-02-19T02:12:45;98270.88;;;-5.69;100.00
26487;BME280;14425;56.136;40.360;2023-02-19T02:15:12;98273.81;;;-5.75;100.00
26487;BME280;14425;56.136;40.360;2023-02-19T02:22:43;98269.25;;;-6.13;100.00
26487;BME280;14425;56.136;40.360;2023-02-19T02:30:48;98264.38;;;-5.67;100.00
26487;BME280;14425;56.136;40.360;2023-02-19T02:36:13;98264.97;;;-6.04;100.00
26487;BME280;14425;56.136;40.360;2023-02-19T02:38:43;98261.31;;;-5.85;100.00
26487;BME280;14425;56.136;40.360;2023-02-19T02:41:11;98253.22;;;-5.71;100.00
26487;BME280;14425;56.136;40.360;2023-02-19T02:43:37;98248.84;;;-5.40;100.00
26487;BME280;14425;56.136;40.360;2023-02-19T02:46:03;98248.53;;;-5.88;100.00
26487;BME280;14425;56.136;40.360;2023-02-19T02:48:33;98240.19;;;-6.21;100.00
26487;BME280;14425;56.136;40.360;2023-02-19T02:53:36;98252.03;;;-6.30;100.00
26487;BME280;14425;56.136;40.360;2023-02-19T02:56:22;98240.50;;;-5.84;100.00
26487;BME280;14425;56.136;40.360;2023-02-19T02:58:50;98230.06;;;-5.33;100.00
26487;BME280;14425;56.136;40.360;2023-02-19T03:01:26;98238.47;;;-5.44;99.75
26487;BME280;14425;56.136;40.360;2023-02-19T03:04:25;98232.31;;;-5.48;99.20
26487;BME280;14425;56.136;40.360;2023-02-19T03:06:53;98237.47;;;-5.12;95.92
26487;BME280;14425;56.136;40.360;2023-02-19T03:09:24;98236.81;;;-5.78;98.27
26487;BME280;14425;56.136;40.360;2023-02-19T03:11:57;98233.34;;;-5.90;100.00
26487;BME280;14425;56.136;40.360;2023-02-19T03:14:47;98234.47;;;-6.08;100.00
26487;BME280;14425;56.136;40.360;2023-02-19T03:17:38;98234.38;;;-5.76;100.00
26487;BME280;14425;56.136;40.360;2023-02-19T03:20:25;98229.09;;;-5.35;100.00
26487;BME280;14425;56.136;40.360;2023-02-19T03:22:52;98236.38;;;-5.72;99.51
26487;BME280;14425;56.136;40.360;2023-02-19T03:25:22;98232.78;;;-5.98;100.00
26487;BME280;14425;56.136;40.360;2023-02-19T03:28:09;98225.53;;;-5.61;100.00
26487;BME280;14425;56.136;40.360;2023-02-19T03:30:39;98237.72;;;-5.99;100.00
26487;BME280;14425;56.136;40.360;2023-02-19T03:33:16;98235.94;;;-6.33;100.00
26487;BME280;14425;56.136;40.360;2023-02-19T03:35:45;98231.69;;;-6.01;100.00
26487;BME280;14425;56.136;40.360;2023-02-19T03:38:19;98235.53;;;-6.17;100.00
26487;BME280;14425;56.136;40.360;2023-02-19T03:41:06;98236.06;;;-6.63;100.00
26487;BME280;14425;56.136;40.360;2023-02-19T03:43:39;98217.84;;;-6.18;100.00
26487;BME280;14425;56.136;40.360;2023-02-19T03:46:35;98220.59;;;-5.81;100.00
26487;BME280;14425;56.136;40.360;2023-02-19T03:49:15;98216.09;;;-5.97;100.00
26487;BME280;14425;56.136;40.360;2023-02-19T03:52:00;98222.91;;;-5.84;100.00
26487;BME280;14425;56.136;40.360;2023-02-19T03:57:15;98214.88;;;-6.02;100.00
26487;BME280;14425;56.136;40.360;2023-02-19T03:59:51;98213.34;;;-6.22;100.00
26487;BME280;14425;56.136;40.360;2023-02-19T04:02:28;98210.84;;;-6.00;100.00
26487;BME280;14425;56.136;40.360;2023-02-19T04:05:10;98207.06;;;-6.17;100.00
26487;BME280;14425;56.136;40.360;2023-02-19T04:07:42;98207.13;;;-5.94;100.00
26487;BME280;14425;56.136;40.360;2023-02-19T04:10:09;98215.44;;;-6.17;100.00
26487;BME280;14425;56.136;40.360;2023-02-19T04:12:38;98210.97;;;-5.99;100.00
26487;BME280;14425;56.136;40.360;2023-02-19T04:15:09;98202.59;;;-5.53;100.00
26487;BME280;14425;56.136;40.360;2023-02-19T04:17:38;98201.13;;;-5.96;100.00
26487;BME280;14425;56.136;40.360;2023-02-19T04:20:08;98207.03;;;-5.95;100.00
26487;BME280;14425;56.136;40.360;2023-02-19T04:22:35;98207.84;;;-6.06;100.00
26487;BME280;14425;56.136;40.360;2023-02-19T04:25:01;98204.41;;;-5.97;100.00
26487;BME280;14425;56.136;40.360;2023-02-19T04:27:28;98207.00;;;-5.73;100.00
26487;BME280;14425;56.136;40.360;2023-02-19T04:29:54;98199.56;;;-4.68;97.60
26487;BME280;14425;56.136;40.360;2023-02-19T04:32:20;98197.59;;;-4.96;94.45
26487;BME280;14425;56.136;40.360;2023-02-19T04:34:45;98197.91;;;-5.03;95.37
26487;BME280;14425;56.136;40.360;2023-02-19T04:37:11;98192.91;;;-4.79;92.79
26487;BME280;14425;56.136;40.360;2023-02-19T04:39:37;98190.28;;;-4.69;91.13
26487;BME280;14425;56.136;40.360;2023-02-19T04:42:02;98184.66;;;-5.36;92.96
26487;BME280;14425;56.136;40.360;2023-02-19T04:44:28;98178.34;;;-5.53;97.25
26487;BME280;14425;56.136;40.360;2023-02-19T04:46:54;98188.19;;;-5.78;97.57
26487;BME280;14425;56.136;40.360;2023-02-19T04:49:19;98180.59;;;-6.02;100.00
26487;BME280;14425;56.136;40.360;2023-02-19T04:51:45;98178.72;;;-6.26;100.00
26487;BME280;14425;56.136;40.360;2023-02-19T04:54:11;98174.00;;;-6.11;100.00
26487;BME280;14425;56.136;40.360;2023-02-19T04:56:36;98188.00;;;-6.25;100.00
26487;BME280;14425;56.136;40.360;2023-02-19T04:59:01;98174.78;;;-6.45;100.00
26487;BME280;14425;56.136;40.360;2023-02-19T05:01:27;98180.56;;;-6.46;100.00
26487;BME280;14425;56.136;40.360;2023-02-19T05:03:52;98184.28;;;-6.41;100.00
26487;BME280;14425;56.136;40.360;2023-02-19T05:06:18;98183.34;;;-6.53;100.00
26487;BME280;14425;56.136;40.360;2023-02-19T05:08:43;98183.13;;;-6.56;100.00
26487;BME280;14425;56.136;40.360;2023-02-19T05:11:10;98180.06;;;-6.20;100.00
26487;BME280;14425;56.136;40.360;2023-02-19T05:13:37;98169.56;;;-5.70;100.00
26487;BME280;14425;56.136;40.360;2023-02-19T05:16:06;98171.31;;;-5.69;100.00
26487;BME280;14425;56.136;40.360;2023-02-19T05:18:32;98163.78;;;-5.91;99.31
26487;BME280;14425;56.136;40.360;2023-02-19T05:20:59;98162.28;;;-6.01;100.00
26487;BME280;14425;56.136;40.360;2023-02-19T05:23:26;98161.28;;;-6.25;100.00
26487;BME280;14425;56.136;40.360;2023-02-19T05:25:52;98164.34;;;-6.39;100.00
26487;BME280;14425;56.136;40.360;2023-02-19T05:28:18;98163.59;;;-5.94;100.00
26487;BME280;14425;56.136;40.360;2023-02-19T05:30:49;98158.25;;;-6.21;100.00
26487;BME280;14425;56.136;40.360;2023-02-19T05:33:20;98158.41;;;-6.29;100.00
26487;BME280;14425;56.136;40.360;2023-02-19T05:36:12;98160.06;;;-6.08;99.73
26487;BME280;14425;56.136;40.360;2023-02-19T05:38:39;98157.78;;;-6.27;99.05
26487;BME280;14425;56.136;40.360;2023-02-19T05:41:12;98163.25;;;-6.43;100.00
26487;BME280;14425;56.136;40.360;2023-02-19T05:43:40;98167.94;;;-6.25;100.00
26487;BME280;14425;56.136;40.360;2023-02-19T05:46:09;98154.63;;;-6.24;100.00
26487;BME280;14425;56.136;40.360;2023-02-19T05:48:39;98154.50;;;-6.26;100.00
26487;BME280;14425;56.136;40.360;2023-02-19T05:51:13;98158.25;;;-6.21;99.70
26487;BME280;14425;56.136;40.360;2023-02-19T05:53:40;98155.16;;;-5.72;97.50
26487;BME280;14425;56.136;40.360;2023-02-19T05:56:38;98154.50;;;-5.70;95.18
26487;BME280;14425;56.136;40.360;2023-02-19T05:59:17;98149.25;;;-5.73;93.62
26487;BME280;14425;56.136;40.360;2023-02-19T06:01:43;98152.34;;;-5.65;93.67
26487;BME280;14425;56.136;40.360;2023-02-19T06:04:10;98158.88;;;-6.23;95.31
26487;BME280;14425;56.136;40.360;2023-02-19T06:06:36;98149.78;;;-6.11;96.53
26487;BME280;14425;56.136;40.360;2023-02-19T06:09:05;98149.44;;;-5.82;95.44
26487;BME280;14425;56.136;40.360;2023-02-19T06:11:31;98159.06;;;-5.42;90.80
26487;BME280;14425;56.136;40.360;2023-02-19T06:13:57;98151.59;;;-5.86;90.54
26487;BME280;14425;56.136;40.360;2023-02-19T06:16:22;98159.38;;;-6.17;92.23
26487;BME280;14425;56.136;40.360;2023-02-19T06:18:48;98157.03;;;-6.04;92.82
26487;BME280;14425;56.136;40.360;2023-02-19T06:21:15;98148.63;;;-5.59;92.12
26487;BME280;14425;56.136;40.360;2023-02-19T06:23:41;98150.84;;;-5.85;92.29
26487;BME280;14425;56.136;40.360;2023-02-19T06:26:22;98143.56;;;-5.82;89.50
26487;BME280;14425;56.136;40.360;2023-02-19T06:28:49;98149.31;;;-6.17;92.00
26487;BME280;14425;56.136;40.360;2023-02-19T06:31:16;98134.66;;;-6.23;93.36
26487;BME280;14425;56.136;40.360;2023-02-19T06:33:42;98151.09;;;-5.82;91.89
26487;BME280;14425;56.136;40.360;2023-02-19T06:36:14;98149.41;;;-5.48;88.77
26487;BME280;14425;56.136;40.360;2023-02-19T06:38:41;98146.59;;;-5.52;89.12
26487;BME280;14425;56.136;40.360;2023-02-19T06:41:08;98147.44;;;-5.64;85.21
26487;BME280;14425;56.136;40.360;2023-02-19T06:43:34;98144.41;;;-5.82;89.38
26487;BME280;14425;56.136;40.360;2023-02-19T06:46:01;98154.72;;;-5.67;86.73
26487;BME280;14425;56.136;40.360;2023-02-19T06:48:28;98143.66;;;-6.15;89.11
26487;BME280;14425;56.136;40.360;2023-02-19T06:50:54;98143.34;;;-5.73;87.25
26487;BME280;14425;56.136;40.360;2023-02-19T06:53:20;98143.59;;;-6.04;87.27
26487;BME280;14425;56.136;40.360;2023-02-19T06:56:02;98143.53;;;-6.38;90.07
26487;BME280;14425;56.136;40.360;2023-02-19T06:58:28;98141.16;;;-5.81;89.99
26487;BME280;14425;56.136;40.360;2023-02-19T07:00:54;98138.47;;;-6.06;88.15
26487;BME280;14425;56.136;40.360;2023-02-19T07:03:20;98135.13;;;-6.17;89.51
26487;BME280;14425;56.136;40.360;2023-02-19T07:05:46;98137.53;;;-6.40;91.32
26487;BME280;14425;56.136;40.360;2023-02-19T07:08:11;98135.31;;;-6.25;91.93
26487;BME280;14425;56.136;40.360;2023-02-19T07:10:37;98135.09;;;-6.28;90.32
26487;BME280;14425;56.136;40.360;2023-02-19T07:13:02;98131.06;;;-6.48;90.86
26487;BME280;14425;56.136;40.360;2023-02-19T07:15:28;98130.16;;;-6.05;89.38
26487;BME280;14425;56.136;40.360;2023-02-19T07:17:54;98129.31;;;-6.05;87.89
26487;BME280;14425;56.136;40.360;2023-02-19T07:20:19;98119.63;;;-4.72;84.63
26487;BME280;14425;56.136;40.360;2023-02-19T07:22:44;98120.53;;;-5.07;77.30
26487;BME280;14425;56.136;40.360;2023-02-19T07:25:10;98123.09;;;-5.99;80.98
26487;BME280;14425;56.136;40.360;2023-02-19T07:27:35;98124.75;;;-6.21;83.59
26487;BME280;14425;56.136;40.360;2023-02-19T07:30:02;98106.28;;;-6.00;85.76
26487;BME280;14425;56.136;40.360;2023-02-19T07:32:30;98114.94;;;-5.15;80.12
26487;BME280;14425;56.136;40.360;2023-02-19T07:34:55;98095.78;;;-5.48;78.61
26487;BME280;14425;56.136;40.360;2023-02-19T07:37:20;98106.28;;;-5.88;80.55
26487;BME280;14425;56.136;40.360;2023-02-19T07:39:46;98084.25;;;-4.99;78.65
26487;BME280;14425;56.136;40.360;2023-02-19T07:42:11;98089.69;;;-5.40;76.10
26487;BME280;14425;56.136;40.360;2023-02-19T07:44:37;98093.47;;;-6.15;80.59
26487;BME280;14425;56.136;40.360;2023-02-19T07:47:02;98105.66;;;-6.19;83.34
26487;BME280;14425;56.136;40.360;2023-02-19T07:49:28;98112.13;;;-6.11;81.39
26487;BME280;14425;56.136;40.360;2023-02-19T07:51:56;98099.25;;;-6.16;82.84
26487;BME280;14425;56.136;40.360;2023-02-19T07:54:22;98105.06;;;-5.93;83.24
26487;BME280;14425;56.136;40.360;2023-02-19T07:56:47;98095.34;;;-6.12;81.74
26487;BME280;14425;56.136;40.360;2023-02-19T08:02:18;98090.47;;;-5.99;80.75
26487;BME280;14425;56.136;40.360;2023-02-19T08:05:03;98084.72;;;-5.74;80.73
26487;BME280;14425;56.136;40.360;2023-02-19T08:07:35;98077.78;;;-5.07;77.68
26487;BME280;14425;56.136;40.360;2023-02-19T08:10:05;98084.31;;;-5.33;76.01
26487;BME280;14425;56.136;40.360;2023-02-19T08:12:55;98082.88;;;-5.65;75.71
26487;BME280;14425;56.136;40.360;2023-02-19T08:15:40;98084.41;;;-5.67;78.07
26487;BME280;14425;56.136;40.360;2023-02-19T08:18:07;98071.44;;;-5.02;77.56
26487;BME280;14425;56.136;40.360;2023-02-19T08:20:32;98059.63;;;-4.42;72.64
26487;BME280;14425;56.136;40.360;2023-02-19T08:23:01;98077.22;;;-5.03;73.94
26487;BME280;14425;56.136;40.360;2023-02-19T08:25:27;98065.88;;;-4.98;74.45
26487;BME280;14425;56.136;40.360;2023-02-19T08:27:52;98068.94;;;-5.14;74.56
26487;BME280;14425;56.136;40.360;2023-02-19T08:30:18;98074.56;;;-4.69;74.23
26487;BME280;14425;56.136;40.360;2023-02-19T08:32:46;98066.00;;;-3.59;72.42
26487;BME280;14425;56.136;40.360;2023-02-19T08:35:13;98066.59;;;-2.83;65.54
26487;BME280;14425;56.136;40.360;2023-02-19T08:37:38;98067.00;;;-2.90;64.08
26487;BME280;14425;56.136;40.360;2023-02-19T08:40:04;98069.75;;;-3.65;65.20
26487;BME280;14425;56.136;40.360;2023-02-19T08:42:30;98068.22;;;-3.77;66.37
26487;BME280;14425;56.136;40.360;2023-02-19T08:44:55;98058.94;;;-3.51;67.47
26487;BME280;14425;56.136;40.360;2023-02-19T08:47:21;98059.22;;;-3.60;67.24
26487;BME280;14425;56.136;40.360;2023-02-19T08:49:46;98057.03;;;-3.02;64.48
26487;BME280;14425;56.136;40.360;2023-02-19T08:52:12;98042.06;;;-1.42;62.33
26487;BME280;14425;56.136;40.360;2023-02-19T08:54:37;98043.63;;;-1.74;60.04
26487;BME280;14425;56.136;40.360;2023-02-19T08:57:03;98039.00;;;-1.67;60.65
26487;BME280;14425;56.136;40.360;2023-02-19T08:59:30;98034.47;;;-1.42;59.04
26487;BME280;14425;56.136;40.360;2023-02-19T09:02:00;98025.56;;;-0.58;57.96
26487;BME280;14425;56.136;40.360;2023-02-19T09:04:26;98025.41;;;-0.61;57.36
26487;BME280;14425;56.136;40.360;2023-02-19T09:06:51;98019.00;;;0.82;55.89
26487;BME280;14425;56.136;40.360;2023-02-19T09:09:17;98012.16;;;-1.03;54.17
26487;BME280;14425;56.136;40.360;2023-02-19T09:11:42;98027.50;;;-2.76;58.37
26487;BME280;14425;56.136;40.360;2023-02-19T09:14:08;98026.78;;;-3.02;60.57
26487;BME280;14425;56.136;40.360;2023-02-19T09:16:34;98028.91;;;-3.61;62.78
26487;BME280;14425;56.136;40.360;2023-02-19T09:19:00;98028.16;;;-3.47;64.02
26487;BME280;14425;56.136;40.360;2023-02-19T09:21:25;98036.75;;;-3.57;64.33
26487;BME280;14425;56.136;40.360;2023-02-19T09:23:52;98032.09;;;-4.02;65.99
26487;BME280;14425;56.136;40.360;2023-02-19T09:26:17;98025.66;;;-3.72;65.60
26487;BME280;14425;56.136;40.360;2023-02-19T09:28:43;98017.06;;;-3.36;65.84
26487;BME280;14425;56.136;40.360;2023-02-19T09:31:11;98010.19;;;-3.11;63.28
26487;BME280;14425;56.136;40.360;2023-02-19T09:33:46;98015.47;;;-3.74;65.30
26487;BME280;14425;56.136;40.360;2023-02-19T09:36:14;98019.38;;;-3.65;66.46
26487;BME280;14425;56.136;40.360;2023-02-19T09:38:40;98004.41;;;-2.69;65.25
26487;BME280;14425;56.136;40.360;2023-02-19T09:41:11;98004.06;;;-2.32;61.78
26487;BME280;14425;56.136;40.360;2023-02-19T09:43:38;98014.84;;;-3.31;64.46
26487;BME280;14425;56.136;40.360;2023-02-19T09:46:39;98001.84;;;-3.10;63.70
26487;BME280;14425;56.136;40.360;2023-02-19T09:49:33;98002.69;;;-2.97;63.35
26487;BME280;14425;56.136;40.360;2023-02-19T09:54:44;97990.38;;;-2.92;64.24
26487;BME280;14425;56.136;40.360;2023-02-19T09:57:15;97993.72;;;-2.78;61.96
26487;BME280;14425;56.136;40.360;2023-02-19T10:02:32;97988.88;;;-3.30;65.62
26487;BME280;14425;56.136;40.360;2023-02-19T10:04:58;97984.28;;;-3.09;63.16
26487;BME280;14425;56.136;40.360;2023-02-19T10:07:26;97987.41;;;-2.43;61.54
26487;BME280;14425;56.136;40.360;2023-02-19T10:10:25;97987.50;;;-3.11;62.47
26487;BME280;14425;56.136;40.360;2023-02-19T10:12:55;97979.44;;;-2.78;63.11
26487;BME280;14425;56.136;40.360;2023-02-19T10:15:30;97977.22;;;-3.81;65.86
26487;BME280;14425;56.136;40.360;2023-02-19T10:17:57;97967.41;;;-2.68;65.66
26487;BME280;14425;56.136;40.360;2023-02-19T10:20:24;97965.78;;;-3.23;64.56
26487;BME280;14425;56.136;40.360;2023-02-19T10:23:02;97961.66;;;-4.14;68.55
26487;BME280;14425;56.136;40.360;2023-02-19T10:25:29;97967.25;;;-3.80;69.15
26487;BME280;14425;56.136;40.360;2023-02-19T10:28:02;97969.88;;;-4.17;70.64
26487;BME280;14425;56.136;40.360;2023-02-19T10:30:30;97974.94;;;-4.42;71.85
26487;BME280;14425;56.136;40.360;2023-02-19T10:33:12;97967.44;;;-3.90;73.11
26487;BME280;14425;56.136;40.360;2023-02-19T10:35:57;97961.31;;;-3.80;72.18
26487;BME280;14425;56.136;40.360;2023-02-19T10:38:46;97962.88;;;-3.69;74.94
26487;BME280;14425;56.136;40.360;2023-02-19T10:41:18;97964.97;;;-4.40;75.38
26487;BME280;14425;56.136;40.360;2023-02-19T10:46:31;97959.38;;;-3.98;78.09
26487;BME280;14425;56.136;40.360;2023-02-19T10:49:00;97958.41;;;-3.20;73.52
26487;BME280;14425;56.136;40.360;2023-02-19T10:51:38;97973.84;;;-4.46;75.42
26487;BME280;14425;56.136;40.360;2023-02-19T10:54:30;97959.13;;;-4.28;81.24
26487;BME280;14425;56.136;40.360;2023-02-19T10:57:29;97970.84;;;-4.28;77.49
26487;BME280;14425;56.136;40.360;2023-02-19T11:00:26;97963.81;;;-3.00;74.52
26487;BME280;14425;56.136;40.360;2023-02-19T11:03:21;97958.72;;;-3.42;73.31
26487;BME280;14425;56.136;40.360;2023-02-19T11:06:08;97956.09;;;-3.83;76.71
26487;BME280;14425;56.136;40.360;2023-02-19T11:09:04;97953.88;;;-3.65;74.28
26487;BME280;14425;56.136;40.360;2023-02-19T11:11:55;97951.81;;;-3.31;77.42
26487;BME280;14425;56.136;40.360;2023-02-19T11:14:42;97951.22;;;-2.72;78.39
26487;BME280;14425;56.136;40.360;2023-02-19T11:17:26;97946.69;;;-3.73;73.65
26487;BME280;14425;56.136;40.360;2023-02-19T11:19:54;97953.19;;;-4.41;77.00
26487;BME280;14425;56.136;40.360;2023-02-19T11:22:39;97944.53;;;-4.95;80.22
26487;BME280;14425;56.136;40.360;2023-02-19T11:28:05;97944.16;;;-4.76;80.31
26487;BME280;14425;56.136;40.360;2023-02-19T11:33:19;97944.34;;;-5.10;83.04
26487;BME280;14425;56.136;40.360;2023-02-19T11:38:41;97931.38;;;-4.02;83.62
26487;BME280;14425;56.136;40.360;2023-02-19T11:41:21;97935.44;;;-4.04;78.95
26487;BME280;14425;56.136;40.360;2023-02-19T11:46:53;97947.69;;;-4.22;81.95
26487;BME280;14425;56.136;40.360;2023-02-19T11:52:37;97942.59;;;-4.74;84.07
26487;BME280;14425;56.136;40.360;2023-02-19T11:57:43;97944.44;;;-5.09;88.83
26487;BME280;14425;56.136;40.360;2023-02-19T12:00:17;97937.19;;;-4.67;85.92
26487;BME280;14425;56.136;40.360;2023-02-19T12:05:33;97932.75;;;-2.71;82.56
26487;BME280;14425;56.136;40.360;2023-02-19T12:21:48;97948.44;;;-5.60;90.68
26487;BME280;14425;56.136;40.360;2023-02-19T12:32:48;97939.03;;;-5.39;88.94
26487;BME280;14425;56.136;40.360;2023-02-19T12:40:44;97937.81;;;-5.20;91.23
26487;BME280;14425;56.136;40.360;2023-02-19T12:43:21;97940.63;;;-4.53;88.20
26487;BME280;14425;56.136;40.360;2023-02-19T12:46:02;97934.69;;;-4.92;85.54
26487;BME280;14425;56.136;40.360;2023-02-19T12:48:55;97945.00;;;-5.01;90.82
26487;BME280;14425;56.136;40.360;2023-02-19T12:51:44;97940.00;;;-5.13;89.92
26487;BME280;14425;56.136;40.360;2023-02-19T12:54:25;97939.91;;;-4.89;91.02
26487;BME280;14425;56.136;40.360;2023-02-19T13:00:00;97936.66;;;-5.49;96.55
26487;BME280;14425;56.136;40.360;2023-02-19T13:02:40;97942.22;;;-5.41;95.27
26487;BME280;14425;56.136;40.360;2023-02-19T13:08:28;97941.38;;;-5.89;100.00
26487;BME280;14425;56.136;40.360;2023-02-19T13:13:50;97933.81;;;-5.53;100.00
26487;BME280;14425;56.136;40.360;2023-02-19T13:16:18;97945.06;;;-5.60;98.99
26487;BME280;14425;56.136;40.360;2023-02-19T13:18:48;97938.00;;;-5.66;100.00
26487;BME280;14425;56.136;40.360;2023-02-19T13:21:17;97942.78;;;-5.92;100.00
26487;BME280;14425;56.136;40.360;2023-02-19T13:24:10;97945.09;;;-5.84;100.00
26487;BME280;14425;56.136;40.360;2023-02-19T13:29:57;97945.94;;;-5.83;100.00
26487;BME280;14425;56.136;40.360;2023-02-19T13:38:19;97939.91;;;-5.38;100.00
26487;BME280;14425;56.136;40.360;2023-02-19T13:41:25;97940.94;;;-5.83;100.00
26487;BME280;14425;56.136;40.360;2023-02-19T13:43:54;97945.94;;;-5.71;100.00
26487;BME280;14425;56.136;40.360;2023-02-19T13:46:21;97939.50;;;-5.44;100.00
26487;BME280;14425;56.136;40.360;2023-02-19T13:48:47;97944.09;;;-5.62;99.89
26487;BME280;14425;56.136;40.360;2023-02-19T13:53:59;97939.34;;;-5.22;96.32
26487;BME280;14425;56.136;40.360;2023-02-19T13:59:42;97940.28;;;-5.08;95.74
26487;BME280;14425;56.136;40.360;2023-02-19T14:04:44;97943.31;;;-5.73;100.00
26487;BME280;14425;56.136;40.360;2023-02-19T14:14:47;97942.81;;;-4.71;93.20
26487;BME280;14425;56.136;40.360;2023-02-19T14:17:38;97933.22;;;-5.14;99.07
26487;BME280;14425;56.136;40.360;2023-02-19T14:25:37;97932.19;;;-5.04;99.49
26487;BME280;14425;56.136;40.360;2023-02-19T14:28:27;97935.22;;;-5.45;100.00
26487;BME280;14425;56.136;40.360;2023-02-19T14:30:58;97949.00;;;-5.64;100.00
26487;BME280;14425;56.136;40.360;2023-02-19T14:33:37;97935.25;;;-5.81;100.00
26487;BME280;14425;56.136;40.360;2023-02-19T14:38:54;97932.59;;;-5.35;100.00
26487;BME280;14425;56.136;40.360;2023-02-19T14:41:22;97929.56;;;-5.78;100.00
26487;BME280;14425;56.136;40.360;2023-02-19T14:43:51;97939.19;;;-6.08;100.00
26487;BME280;14425;56.136;40.360;2023-02-19T14:48:45;97930.53;;;-5.76;100.00
26487;BME280;14425;56.136;40.360;2023-02-19T14:51:52;97923.13;;;-5.86;100.00
26487;BME280;14425;56.136;40.360;2023-02-19T14:54:47;97919.03;;;-5.25;100.00
26487;BME280;14425;56.136;40.360;2023-02-19T14:57:18;97913.34;;;-5.23;100.00
26487;BME280;14425;56.136;40.360;2023-02-19T14:59:59;97908.63;;;-4.81;100.00
26487;BME280;14425;56.136;40.360;2023-02-19T15:02:27;97911.59;;;-5.24;100.00
26487;BME280;14425;56.136;40.360;2023-02-19T15:04:58;97917.78;;;-5.55;100.00
26487;BME280;14425;56.136;40.360;2023-02-19T15:09:54;97917.22;;;-5.51;100.00
26487;BME280;14425;56.136;40.360;2023-02-19T15:12:27;97906.94;;;-4.55;100.00
26487;BME280;14425;56.136;40.360;2023-02-19T15:14:56;97911.31;;;-4.53;96.32
26487;BME280;14425;56.136;40.360;2023-02-19T15:17:26;97908.47;;;-5.57;100.00
26487;BME280;14425;56.136;40.360;2023-02-19T15:20:02;97915.16;;;-5.57;100.00